Time;durP1;ratioP1;P1;durP2;ratioP2;P2;SDS_P1;SDS_P2;PMS_P1;PMS_P2;Temp;Humidity;BMP_temperature;BMP_pressure;BME280_temperature;BME280_humidity;BME280_pressure;Samples;Min_cycle;Max_cycle;Signal;HPM_P1;HPM_P2
2022/04/10 05:32:29;;;;;;;6.63;3.97;;;;;;;3.70;80.12;98561.66;5060123;28;20386;-60
2022/04/10 05:34:55;;;;;;;6.57;3.97;;;;;;;3.74;80.09;98553.66;5033739;28;20036;-63
2022/04/10 05:37:20;;;;;;;7.22;4.53;;;;;;;3.78;80.16;98556.84;5056374;28;20107;-61
2022/04/10 05:39:45;;;;;;;6.55;4.85;;;;;;;3.76;79.96;98549.22;5039755;28;20655;-59
2022/04/10 05:42:11;;;;;;;6.30;4.38;;;;;;;3.77;79.37;98558.56;5039182;28;20055;-60
2022/04/10 05:44:37;;;;;;;6.80;4.10;;;;;;;3.83;79.48;98563.31;5046572;28;20033;-61
2022/04/10 05:47:02;;;;;;;5.82;3.90;;;;;;;3.84;78.71;98548.69;5045678;28;20045;-60
2022/04/10 05:49:28;;;;;;;5.72;3.88;;;;;;;3.90;79.04;98556.00;5044184;28;20036;-63
2022/04/10 05:51:54;;;;;;;7.15;4.30;;;;;;;3.99;78.77;98559.69;5042574;28;20036;-62
2022/04/10 05:54:19;;;;;;;5.90;3.65;;;;;;;3.95;78.91;98548.78;5038154;28;20892;-61
2022/04/10 05:56:44;;;;;;;5.63;3.33;;;;;;;3.91;78.89;98552.50;5037117;28;20579;-60
2022/04/10 05:59:10;;;;;;;7.65;4.30;;;;;;;3.93;77.96;98555.78;5054844;28;20394;-61
2022/04/10 06:01:35;;;;;;;5.70;3.80;;;;;;;3.96;77.16;98553.03;5031115;28;20057;-61
2022/04/10 06:04:01;;;;;;;7.70;3.85;;;;;;;4.08;76.36;98561.66;5028205;28;20036;-60
2022/04/10 06:06:26;;;;;;;7.65;3.60;;;;;;;4.04;75.13;98566.19;5047418;28;20574;-62
2022/04/10 06:08:51;;;;;;;6.28;3.83;;;;;;;4.20;74.26;98565.97;5042087;28;20044;-61
2022/04/10 06:11:17;;;;;;;4.88;2.88;;;;;;;4.18;73.03;98577.28;5052731;28;20031;-61
2022/04/10 06:13:42;;;;;;;6.57;2.97;;;;;;;4.41;72.25;98581.66;5023992;28;20102;-63
2022/04/10 06:16:08;;;;;;;5.32;3.30;;;;;;;4.48;70.29;98583.81;5033910;28;20436;-60
2022/04/10 06:18:33;;;;;;;5.18;3.00;;;;;;;4.58;70.15;98585.66;5052572;28;20480;-60
2022/04/10 06:20:59;;;;;;;6.25;3.17;;;;;;;4.64;72.46;98589.53;5059498;28;20122;-63
2022/04/10 06:23:24;;;;;;;5.72;3.78;;;;;;;4.64;73.93;98594.69;5025069;28;20033;-60
2022/04/10 06:25:51;;;;;;;7.63;4.47;;;;;;;4.75;74.31;98593.94;5018911;28;20045;-59
2022/04/10 06:28:16;;;;;;;6.00;4.07;;;;;;;4.86;73.88;98606.06;5038507;28;20041;-61
2022/04/10 06:30:43;;;;;;;6.03;4.07;;;;;;;4.78;74.32;98601.44;5026298;28;20037;-62
2022/04/10 06:33:09;;;;;;;7.45;3.95;;;;;;;4.78;74.18;98588.56;5022278;28;20542;-60
2022/04/10 06:35:34;;;;;;;5.88;3.78;;;;;;;4.83;73.34;98599.38;5028607;28;20033;-61
2022/04/10 06:37:59;;;;;;;6.63;3.72;;;;;;;4.82;73.11;98584.84;5047818;28;20054;-63
2022/04/10 06:40:25;;;;;;;6.13;3.42;;;;;;;4.89;72.63;98591.22;5033431;28;20476;-60
2022/04/10 06:42:50;;;;;;;5.57;3.30;;;;;;;4.84;71.51;98592.44;5024249;28;20021;-60
2022/04/10 06:45:16;;;;;;;6.15;3.20;;;;;;;4.56;70.18;98566.91;5049481;28;20028;-62
2022/04/10 06:47:42;;;;;;;4.45;2.70;;;;;;;4.55;69.39;98556.72;5020082;28;20543;-62
2022/04/10 06:50:08;;;;;;;5.45;2.58;;;;;;;4.58;68.08;98552.19;5017191;28;20124;-60
2022/04/10 06:52:35;;;;;;;4.07;1.90;;;;;;;4.90;65.89;98597.19;5017140;28;20094;-59
2022/04/10 06:55:00;;;;;;;5.47;2.13;;;;;;;5.00;65.34;98600.75;5026505;28;20530;-61
2022/04/10 06:57:26;;;;;;;4.35;2.03;;;;;;;4.98;66.56;98607.75;5027608;28;20028;-60
2022/04/10 06:59:51;;;;;;;5.38;1.80;;;;;;;5.16;61.35;98606.44;5024159;28;20025;-61
2022/04/10 07:02:17;;;;;;;3.65;1.55;;;;;;;5.17;60.59;98608.09;5016846;28;20041;-60
2022/04/10 07:04:42;;;;;;;3.92;1.60;;;;;;;5.03;62.16;98571.38;5020243;28;20029;-59
2022/04/10 07:07:08;;;;;;;3.97;1.58;;;;;;;5.31;56.08;98614.84;5028206;28;20044;-60
2022/04/10 07:09:33;;;;;;;4.78;1.90;;;;;;;5.36;61.49;98615.31;5004595;28;20025;-61
2022/04/10 07:11:58;;;;;;;5.70;2.10;;;;;;;5.37;64.55;98618.72;4992744;28;20034;-60
2022/04/10 07:14:24;;;;;;;7.72;2.50;;;;;;;5.36;65.11;98629.97;5009521;28;20030;-60
2022/04/10 07:16:49;;;;;;;4.63;2.35;;;;;;;5.09;66.05;98623.31;5009520;28;20037;-60
2022/04/10 07:19:15;;;;;;;5.50;2.55;;;;;;;5.13;66.02;98627.31;5001910;28;20083;-62
2022/04/10 07:24:26;;;;;;;5.53;2.67;;;;;;;5.33;66.38;98637.91;5026110;28;20197;-59
2022/04/10 07:26:52;;;;;;;4.80;2.60;;;;;;;5.33;65.23;98635.34;5017429;28;20418;-61
2022/04/10 07:29:18;;;;;;;5.53;2.47;;;;;;;5.46;64.61;98633.53;4997865;28;20033;-61
2022/04/10 07:31:43;;;;;;;6.30;2.15;;;;;;;5.45;63.36;98643.97;5000190;28;20043;-61
2022/04/10 07:34:08;;;;;;;5.75;1.85;;;;;;;5.18;63.46;98589.13;5003001;28;20479;-59
2022/04/10 07:36:34;;;;;;;4.68;2.03;;;;;;;5.55;62.79;98642.38;5025493;28;20120;-60
2022/04/10 07:39:00;;;;;;;4.95;1.85;;;;;;;5.58;63.40;98650.69;5029819;28;20032;-60
2022/04/10 07:41:25;;;;;;;3.97;1.63;;;;;;;5.60;62.04;98650.56;5031378;28;20037;-59
2022/04/10 07:43:51;;;;;;;4.15;1.80;;;;;;;5.43;62.41;98638.09;5031604;28;20030;-67
2022/04/10 07:49:00;;;;;;;4.05;1.50;;;;;;;5.54;61.14;98656.19;5011261;28;20033;-60
2022/04/10 07:51:26;;;;;;;4.32;1.60;;;;;;;5.62;61.54;98653.84;5011535;28;20033;-60
2022/04/10 07:53:54;;;;;;;4.25;1.65;;;;;;;5.58;60.20;98655.84;5019626;28;20038;-59
2022/04/10 07:56:21;;;;;;;3.67;1.35;;;;;;;5.68;59.73;98648.25;5037381;28;20499;-60
2022/04/10 07:58:46;;;;;;;4.35;1.30;;;;;;;5.60;60.52;98645.41;5009987;28;20052;-60
2022/04/10 08:01:12;;;;;;;3.53;1.50;;;;;;;5.62;60.76;98655.63;5013287;28;20377;-60
2022/04/10 08:03:37;;;;;;;5.43;1.60;;;;;;;5.48;60.44;98639.41;5014413;28;20155;-60
2022/04/10 08:06:03;;;;;;;3.30;1.30;;;;;;;5.50;58.92;98639.28;5023319;28;20465;-60
2022/04/10 08:08:28;;;;;;;4.20;1.50;;;;;;;5.63;59.49;98650.34;5019965;28;20162;-60
2022/04/10 08:10:54;;;;;;;5.05;1.60;;;;;;;5.73;59.99;98650.47;5016788;28;20373;-59
2022/04/10 08:13:19;;;;;;;3.53;1.40;;;;;;;5.81;58.17;98655.09;5012336;28;20037;-63
2022/04/10 08:15:46;;;;;;;3.25;1.30;;;;;;;5.55;58.45;98598.50;5006907;28;20029;-62
2022/04/10 08:18:11;;;;;;;4.57;1.42;;;;;;;5.77;58.76;98654.50;5048266;28;20022;-62
2022/04/10 08:20:37;;;;;;;2.95;1.27;;;;;;;5.85;58.76;98643.63;5026999;28;20029;-61
2022/04/10 08:23:03;;;;;;;3.45;1.40;;;;;;;5.82;58.78;98639.47;5033853;28;20025;-61
2022/04/10 08:25:28;;;;;;;4.22;1.13;;;;;;;5.82;59.66;98649.81;5040064;28;20098;-60
2022/04/10 08:27:55;;;;;;;3.45;1.15;;;;;;;5.85;57.27;98643.63;5009893;28;20733;-61
2022/04/10 08:30:21;;;;;;;4.63;1.52;;;;;;;5.89;58.43;98645.03;5013022;28;20029;-60
2022/04/10 08:32:47;;;;;;;5.25;1.40;;;;;;;5.71;58.03;98650.63;5002979;28;20108;-62
2022/04/10 08:35:13;;;;;;;3.33;1.38;;;;;;;5.76;58.33;98648.50;5023545;28;20038;-61
2022/04/10 08:37:39;;;;;;;4.82;1.88;;;;;;;5.70;58.70;98643.81;5007729;28;20029;-62
2022/04/10 08:40:05;;;;;;;4.13;1.70;;;;;;;5.89;59.44;98647.59;5015994;28;20025;-63
2022/04/10 08:42:31;;;;;;;4.10;1.70;;;;;;;6.47;57.48;98634.66;5002871;28;20021;-61
2022/04/10 08:44:57;;;;;;;4.60;1.80;;;;;;;6.93;52.43;98629.31;5001634;28;20029;-63
2022/04/10 08:47:23;;;;;;;5.18;1.90;;;;;;;6.73;54.98;98636.06;5016940;28;20033;-63
2022/04/10 08:49:51;;;;;;;4.50;1.80;;;;;;;6.75;52.87;98638.50;5013715;28;20554;-61
2022/04/10 08:52:18;;;;;;;4.30;1.75;;;;;;;6.80;52.03;98633.81;5010474;28;20034;-61
2022/04/10 08:54:44;;;;;;;4.03;1.50;;;;;;;6.93;52.13;98634.47;5034349;28;20029;-61
2022/04/10 08:57:10;;;;;;;3.80;1.30;;;;;;;7.28;51.30;98642.97;5024163;28;20082;-60
2022/04/10 08:59:36;;;;;;;4.10;1.42;;;;;;;7.47;49.22;98632.78;5030531;28;20035;-60
2022/04/10 09:02:02;;;;;;;3.15;1.20;;;;;;;7.86;48.07;98633.03;5012569;28;20755;-63
2022/04/10 09:04:28;;;;;;;3.80;1.20;;;;;;;8.19;47.49;98646.72;5028694;28;20117;-61
2022/04/10 09:07:08;;;;;;;4.50;1.60;;;;;;;8.43;45.51;98630.94;5028804;28;20063;-61
2022/04/10 09:09:55;;;;;;;4.88;1.50;;;;;;;8.56;39.25;98629.88;5026763;28;20115;-61
2022/04/10 09:12:21;;;;;;;3.03;1.20;;;;;;;8.97;40.34;98625.47;5040192;28;20163;-60
2022/04/10 09:14:46;;;;;;;1.15;0.50;;;;;;;9.19;33.37;98622.63;5021407;28;20115;-61
2022/04/10 09:17:14;;;;;;;0.98;0.38;;;;;;;9.18;32.09;98584.69;5024573;28;20036;-61
2022/04/10 09:19:48;;;;;;;1.38;0.60;;;;;;;9.71;31.06;98632.75;5019457;28;20567;-62
2022/04/10 09:22:35;;;;;;;2.22;0.70;;;;;;;9.66;31.21;98619.34;5004175;28;20029;-63
2022/04/10 09:25:13;;;;;;;1.48;0.60;;;;;;;10.04;30.82;98638.44;5025447;28;20044;-62
2022/04/10 09:27:49;;;;;;;2.05;0.50;;;;;;;10.14;29.00;98636.59;5027796;28;20032;-62
2022/04/10 09:30:16;;;;;;;1.83;0.55;;;;;;;10.38;27.64;98638.72;5010544;28;20029;-64
2022/04/10 09:32:45;;;;;;;1.42;0.52;;;;;;;10.61;28.28;98629.78;5042023;28;20025;-63
2022/04/10 09:35:12;;;;;;;1.02;0.40;;;;;;;10.72;27.10;98630.38;5013807;28;20033;-63
2022/04/10 09:37:48;;;;;;;1.58;0.47;;;;;;;10.85;24.66;98643.03;5041335;28;20059;-64
2022/04/10 09:40:32;;;;;;;1.20;0.40;;;;;;;10.74;26.43;98591.22;5033020;28;20075;-63
2022/04/10 09:43:07;;;;;;;1.42;0.50;;;;;;;11.07;25.58;98628.00;5028472;28;20048;-60
2022/04/10 09:45:41;;;;;;;1.42;0.40;;;;;;;11.22;25.05;98628.28;5015649;28;20037;-61
2022/04/10 09:48:20;;;;;;;1.42;0.40;;;;;;;11.22;25.36;98629.09;5006495;28;20037;-62
2022/04/10 09:50:47;;;;;;;1.17;0.47;;;;;;;11.30;25.71;98629.19;5024887;28;20078;-60
2022/04/10 09:53:12;;;;;;;2.00;0.47;;;;;;;11.44;22.21;98609.63;4987895;28;20033;-62
2022/04/10 09:55:39;;;;;;;1.42;0.40;;;;;;;11.44;23.41;98622.63;5031346;28;20390;-60
2022/04/10 09:58:07;;;;;;;1.05;0.47;;;;;;;11.21;23.35;98580.63;5020291;28;20033;-61
2022/04/10 10:00:39;;;;;;;1.35;0.50;;;;;;;11.53;23.39;98605.28;5041605;28;20088;-60
2022/04/10 10:03:06;;;;;;;0.50;0.40;;;;;;;11.54;23.54;98607.75;5009422;28;20041;-62
2022/04/10 10:05:32;;;;;;;0.95;0.50;;;;;;;11.79;23.40;98604.50;5032779;28;20029;-61
2022/04/10 10:07:59;;;;;;;3.05;0.90;;;;;;;11.91;23.80;98590.28;5025192;28;20425;-61
2022/04/10 10:10:29;;;;;;;1.92;0.60;;;;;;;11.90;23.34;98583.44;4960306;28;20029;-61
2022/04/10 10:12:56;;;;;;;3.28;0.90;;;;;;;11.91;23.56;98582.47;5017339;28;20025;-61
2022/04/10 10:15:22;;;;;;;2.05;0.55;;;;;;;11.81;21.36;98579.13;5029829;28;20067;-60
2022/04/10 10:17:48;;;;;;;1.67;0.55;;;;;;;11.70;21.08;98583.63;5023102;28;20053;-60
2022/04/10 10:20:14;;;;;;;2.47;0.77;;;;;;;11.84;21.66;98582.22;5053891;28;20055;-59
2022/04/10 10:22:40;;;;;;;2.05;0.70;;;;;;;11.82;21.26;98573.75;5025855;28;20025;-59
2022/04/10 10:25:10;;;;;;;3.17;0.60;;;;;;;11.73;21.62;98528.59;5038192;28;20035;-61
2022/04/10 10:28:01;;;;;;;1.02;0.47;;;;;;;12.01;21.06;98583.19;5035428;28;20115;-60
2022/04/10 10:30:40;;;;;;;1.50;0.50;;;;;;;12.06;21.06;98575.72;5036178;28;20024;-61
2022/04/10 10:33:15;;;;;;;2.90;0.82;;;;;;;12.15;21.68;98570.56;5022621;28;20104;-60
2022/04/10 10:35:43;;;;;;;1.45;0.43;;;;;;;12.20;24.97;98568.31;5024059;28;20056;-61
2022/04/10 10:38:25;;;;;;;0.88;0.40;;;;;;;12.44;22.50;98567.56;5013843;28;20025;-60
2022/04/10 10:40:53;;;;;;;1.25;0.47;;;;;;;12.01;20.96;98520.66;5003138;28;20036;-62
2022/04/10 10:43:20;;;;;;;2.03;0.50;;;;;;;12.33;22.39;98565.25;5044590;28;20025;-60
2022/04/10 10:45:49;;;;;;;1.85;0.60;;;;;;;12.24;20.99;98546.97;5027418;28;20033;-59
2022/04/10 10:48:32;;;;;;;1.38;0.50;;;;;;;12.07;20.05;98504.38;5029263;28;20025;-62
2022/04/10 10:51:03;;;;;;;1.63;0.60;;;;;;;12.10;21.63;98496.25;5029929;28;20033;-60
2022/04/10 10:53:58;;;;;;;1.70;0.50;;;;;;;12.59;24.54;98546.91;5060664;28;20033;-61
2022/04/10 10:56:32;;;;;;;1.38;0.50;;;;;;;12.67;24.49;98545.16;5031485;28;20508;-60
2022/04/10 10:59:20;;;;;;;2.55;0.50;;;;;;;12.62;20.90;98536.19;5019751;28;20074;-62
2022/04/10 11:02:07;;;;;;;2.92;0.88;;;;;;;12.71;22.27;98535.22;5027369;28;20120;-60
2022/04/10 11:04:53;;;;;;;3.60;1.13;;;;;;;12.79;21.30;98527.38;5031294;28;20033;-61
2022/04/10 11:07:18;;;;;;;3.53;1.10;;;;;;;12.68;20.35;98519.88;5032548;28;20116;-62
2022/04/10 11:10:04;;;;;;;1.45;0.43;;;;;;;12.71;19.56;98514.34;5033042;28;20107;-59
2022/04/10 11:12:50;;;;;;;3.05;0.80;;;;;;;12.65;20.58;98494.94;5040941;28;20029;-60
2022/04/10 11:15:20;;;;;;;1.58;0.50;;;;;;;12.69;19.08;98511.09;5036574;28;20107;-60
2022/04/10 11:17:47;;;;;;;1.67;0.85;;;;;;;12.44;20.77;98473.69;5019431;28;20029;-61
2022/04/10 11:20:15;;;;;;;2.45;0.40;;;;;;;12.72;19.71;98489.06;5035719;28;20086;-60
2022/04/10 11:23:00;;;;;;;2.80;0.60;;;;;;;12.89;19.60;98507.19;5034150;28;20029;-60
2022/04/10 11:25:26;;;;;;;1.83;0.60;;;;;;;12.90;18.88;98502.78;5010294;28;20137;-59
2022/04/10 11:28:03;;;;;;;4.32;1.83;;;;;;;12.95;20.24;98503.13;5006649;28;20026;-60
2022/04/10 11:30:48;;;;;;;4.68;1.60;;;;;;;13.28;20.50;98505.72;5006115;28;20034;-61
2022/04/10 11:33:14;;;;;;;0.60;0.30;;;;;;;12.88;19.90;98463.00;5015079;28;20040;-62
2022/04/10 11:35:41;;;;;;;2.60;0.70;;;;;;;13.18;19.11;98494.63;4987074;28;20029;-60
2022/04/10 11:38:17;;;;;;;2.60;0.60;;;;;;;13.04;19.02;98489.09;5012441;28;20030;-61
2022/04/10 11:40:48;;;;;;;2.05;0.60;;;;;;;13.21;19.58;98487.28;5019679;28;20034;-60
2022/04/10 11:43:15;;;;;;;1.40;0.38;;;;;;;13.20;18.22;98483.06;5013782;28;20014;-61
2022/04/10 11:45:42;;;;;;;2.63;1.02;;;;;;;13.23;18.86;98479.28;5012367;28;20041;-60
2022/04/10 11:48:08;;;;;;;1.88;0.60;;;;;;;13.28;19.84;98479.59;5046742;28;20033;-60
2022/04/10 11:50:33;;;;;;;1.23;0.40;;;;;;;13.13;20.52;98453.34;5030166;28;20040;-61
2022/04/10 11:53:04;;;;;;;1.63;0.60;;;;;;;13.16;19.09;98476.53;5020402;28;20029;-59
2022/04/10 11:55:38;;;;;;;1.17;0.40;;;;;;;13.01;20.17;98472.94;5032036;28;20037;-61
2022/04/10 11:58:25;;;;;;;1.38;0.40;;;;;;;12.85;19.08;98468.53;5023407;28;20428;-60
2022/04/10 12:00:54;;;;;;;1.85;0.50;;;;;;;12.84;18.63;98459.09;5018698;28;20033;-61
2022/04/10 12:03:21;;;;;;;1.35;0.50;;;;;;;12.77;18.44;98411.94;5015228;28;20029;-60
2022/04/10 12:05:47;;;;;;;2.05;0.55;;;;;;;13.02;18.20;98458.91;5025635;28;20026;-60
2022/04/10 12:08:13;;;;;;;1.48;0.47;;;;;;;13.10;19.47;98455.47;5015965;28;20083;-62
2022/04/10 12:10:39;;;;;;;1.50;0.55;;;;;;;13.14;19.80;98446.34;5037300;28;20034;-60
2022/04/10 12:13:05;;;;;;;1.38;0.40;;;;;;;13.02;18.71;98409.34;5017634;28;20022;-60
2022/04/10 12:15:32;;;;;;;0.90;0.40;;;;;;;13.40;18.02;98454.00;5025979;28;20041;-60
2022/04/10 12:18:07;;;;;;;2.70;0.80;;;;;;;13.30;18.14;98442.91;5017669;28;20024;-61
2022/04/10 12:20:34;;;;;;;1.55;0.57;;;;;;;13.46;18.95;98445.50;5014448;28;20045;-60
2022/04/10 12:22:59;;;;;;;1.45;0.52;;;;;;;13.57;18.21;98433.88;5005917;28;20202;-61
2022/04/10 12:25:26;;;;;;;1.65;0.60;;;;;;;13.28;18.28;98403.88;5012464;28;20445;-60
2022/04/10 12:27:51;;;;;;;2.17;0.80;;;;;;;13.46;18.41;98437.66;5012295;28;20191;-61
2022/04/10 12:30:18;;;;;;;3.78;0.82;;;;;;;13.63;19.80;98425.38;5068715;28;20033;-63
2022/04/10 12:32:44;;;;;;;2.20;0.50;;;;;;;13.79;18.77;98440.19;5021659;28;20037;-61
2022/04/10 12:35:11;;;;;;;2.15;0.43;;;;;;;13.60;20.17;98423.91;5007292;28;20029;-63
2022/04/10 12:37:44;;;;;;;2.78;0.80;;;;;;;13.79;20.45;98420.06;5023791;28;20131;-59
2022/04/10 12:40:11;;;;;;;1.00;0.40;;;;;;;13.71;20.61;98374.88;5014676;28;20220;-61
2022/04/10 12:42:38;;;;;;;1.85;0.60;;;;;;;14.02;20.43;98409.69;5021300;28;20029;-60
2022/04/10 12:45:06;;;;;;;1.45;0.50;;;;;;;14.11;20.35;98407.84;5006795;28;20435;-61
2022/04/10 12:47:42;;;;;;;1.20;0.50;;;;;;;14.12;18.55;98387.75;5013774;28;20116;-60
2022/04/10 12:50:09;;;;;;;1.95;0.50;;;;;;;14.15;18.54;98395.25;5026098;28;20032;-60
2022/04/10 12:52:37;;;;;;;1.40;0.50;;;;;;;14.13;18.44;98398.03;5027243;28;20036;-60
2022/04/10 12:55:14;;;;;;;1.75;0.30;;;;;;;14.14;19.67;98402.25;5037650;28;20512;-60
2022/04/10 12:57:42;;;;;;;1.45;0.40;;;;;;;14.23;18.69;98395.97;5027124;28;20075;-60
2022/04/10 13:00:08;;;;;;;1.38;0.50;;;;;;;14.25;19.33;98387.16;5050075;28;20899;-60
2022/04/10 13:02:37;;;;;;;2.60;0.70;;;;;;;14.22;25.67;98391.75;5019617;28;20504;-60
2022/04/10 13:05:10;;;;;;;1.60;0.47;;;;;;;14.11;20.83;98393.94;5045147;28;20186;-61
2022/04/10 13:07:36;;;;;;;1.55;0.50;;;;;;;13.88;18.19;98339.84;5020892;28;20483;-60
2022/04/10 13:10:01;;;;;;;1.40;0.50;;;;;;;14.28;18.00;98389.44;5035962;28;20332;-60
2022/04/10 13:12:33;;;;;;;0.93;0.40;;;;;;;14.06;18.09;98389.25;5031675;28;20531;-63
2022/04/10 13:14:59;;;;;;;1.30;0.47;;;;;;;13.89;18.90;98348.50;5029563;28;20153;-61
2022/04/10 13:17:55;;;;;;;2.45;0.60;;;;;;;14.26;18.54;98381.78;5029198;28;20090;-61
2022/04/10 13:20:23;;;;;;;1.80;0.52;;;;;;;14.23;19.19;98384.72;5028172;28;20615;-60
2022/04/10 13:22:49;;;;;;;0.90;0.40;;;;;;;14.46;20.29;98378.69;5033704;28;20364;-59
2022/04/10 13:25:14;;;;;;;2.42;0.50;;;;;;;14.48;19.49;98371.47;5036469;28;20039;-62
2022/04/10 13:27:40;;;;;;;1.38;0.40;;;;;;;14.61;19.16;98371.72;5035472;28;20025;-60
2022/04/10 13:30:06;;;;;;;0.95;0.40;;;;;;;14.53;20.04;98356.06;5005047;28;20029;-61
2022/04/10 13:32:32;;;;;;;2.83;0.60;;;;;;;14.67;19.13;98357.13;5014556;28;20127;-62
2022/04/10 13:34:58;;;;;;;1.40;0.40;;;;;;;14.73;20.60;98362.47;5006826;28;20029;-64
2022/04/10 13:37:25;;;;;;;2.67;0.70;;;;;;;14.57;20.21;98346.88;5024616;28;20034;-61
2022/04/10 13:39:51;;;;;;;4.07;1.63;;;;;;;14.67;18.69;98355.31;5009462;28;20030;-61
2022/04/10 13:42:16;;;;;;;3.00;1.00;;;;;;;14.88;18.55;98356.44;5018542;28;20037;-62
2022/04/10 13:44:42;;;;;;;3.35;1.30;;;;;;;14.93;18.23;98348.84;5008309;28;20462;-62
2022/04/10 13:47:07;;;;;;;4.10;1.45;;;;;;;15.01;17.80;98356.63;5008133;28;20063;-60
2022/04/10 13:49:33;;;;;;;3.60;1.30;;;;;;;14.89;17.53;98358.88;4993505;28;20124;-60
2022/04/10 13:52:00;;;;;;;1.75;0.70;;;;;;;14.47;17.81;98301.81;5013641;28;20037;-61
2022/04/10 13:54:25;;;;;;;1.52;0.60;;;;;;;14.70;18.11;98357.59;5008953;28;20044;-60
2022/04/10 13:56:51;;;;;;;1.92;0.60;;;;;;;14.75;17.63;98362.28;5009100;28;20030;-61
2022/04/10 13:59:17;;;;;;;1.77;0.60;;;;;;;14.70;17.41;98351.53;5035744;28;20037;-59
2022/04/10 14:01:43;;;;;;;1.38;0.50;;;;;;;14.63;17.22;98350.63;5008605;28;20630;-60
2022/04/10 14:04:08;;;;;;;1.05;0.50;;;;;;;14.71;17.96;98356.59;5018375;28;20080;-61
2022/04/10 14:06:34;;;;;;;3.15;0.60;;;;;;;14.61;17.33;98346.38;5004061;28;20059;-62
2022/04/10 14:09:00;;;;;;;2.20;0.60;;;;;;;14.65;17.05;98353.88;5023024;28;20033;-62
2022/04/10 14:11:30;;;;;;;1.25;0.52;;;;;;;14.88;17.32;98359.88;5020421;28;20073;-62
2022/04/10 14:13:55;;;;;;;1.98;0.50;;;;;;;14.93;18.76;98356.72;5028370;28;20030;-63
2022/04/10 14:16:21;;;;;;;3.25;0.70;;;;;;;15.31;20.16;98354.03;5008855;28;20543;-60
2022/04/10 14:18:47;;;;;;;2.72;0.93;;;;;;;15.28;20.37;98328.22;5038226;28;20070;-62
2022/04/10 14:21:15;;;;;;;1.90;0.80;;;;;;;15.35;20.30;98353.50;5044589;28;20133;-62
2022/04/10 14:23:41;;;;;;;2.58;0.73;;;;;;;15.62;20.04;98347.75;5015489;28;20032;-62
2022/04/10 14:26:07;;;;;;;2.60;0.70;;;;;;;15.79;19.49;98346.59;5043884;28;20025;-61
2022/04/10 14:28:37;;;;;;;2.17;0.80;;;;;;;15.79;19.15;98346.59;5034675;28;20038;-61
2022/04/10 14:31:03;;;;;;;2.25;0.80;;;;;;;15.75;19.66;98347.94;5023186;28;20068;-61
2022/04/10 14:33:28;;;;;;;3.08;0.70;;;;;;;15.70;19.49;98332.75;5018511;28;20045;-60
2022/04/10 14:35:54;;;;;;;2.67;0.90;;;;;;;15.56;19.54;98341.44;5034790;28;20042;-61
2022/04/10 14:38:19;;;;;;;2.55;0.85;;;;;;;15.52;20.15;98338.38;5035196;28;20024;-60
2022/04/10 14:40:46;;;;;;;2.85;0.75;;;;;;;15.54;20.04;98327.72;5033872;28;20067;-61
2022/04/10 14:43:12;;;;;;;4.25;0.80;;;;;;;15.12;19.53;98282.88;5036061;28;20029;-59
2022/04/10 14:45:37;;;;;;;2.42;0.70;;;;;;;15.67;20.17;98334.94;5039140;28;20036;-59
2022/04/10 14:48:03;;;;;;;4.47;1.05;;;;;;;15.69;19.71;98335.56;5028159;28;20024;-61
2022/04/10 14:50:28;;;;;;;2.15;0.73;;;;;;;15.79;19.69;98330.03;5015477;28;20037;-61
2022/04/10 14:52:55;;;;;;;4.00;0.95;;;;;;;15.66;19.40;98292.19;5022971;28;20504;-60
2022/04/10 14:55:20;;;;;;;3.90;0.90;;;;;;;15.91;18.67;98337.22;5015556;28;20044;-60
2022/04/10 14:57:46;;;;;;;3.75;0.90;;;;;;;15.92;19.50;98338.06;5026341;28;20073;-62
2022/04/10 15:00:12;;;;;;;2.15;0.75;;;;;;;15.73;19.81;98289.63;5013867;28;20056;-59
2022/04/10 15:02:37;;;;;;;4.30;0.80;;;;;;;16.01;19.45;98330.88;5012528;28;20036;-61
2022/04/10 15:05:07;;;;;;;2.30;0.80;;;;;;;16.11;19.97;98344.50;5012636;28;20113;-59
2022/04/10 15:07:33;;;;;;;3.50;1.20;;;;;;;15.81;19.35;98302.66;5006912;28;20856;-60
2022/04/10 15:09:58;;;;;;;4.13;1.00;;;;;;;16.05;19.87;98343.44;5026247;28;20423;-61
2022/04/10 15:12:24;;;;;;;3.83;0.95;;;;;;;15.98;19.82;98339.13;5019430;28;20045;-60
2022/04/10 15:14:52;;;;;;;3.67;1.30;;;;;;;15.73;19.70;98300.94;5009303;28;20034;-60
2022/04/10 15:17:18;;;;;;;3.33;1.17;;;;;;;15.85;19.00;98339.81;5015171;28;20034;-61
2022/04/10 15:19:44;;;;;;;3.90;1.35;;;;;;;15.96;20.13;98336.69;5009388;28;20049;-59
2022/04/10 15:22:09;;;;;;;3.30;1.20;;;;;;;16.01;20.28;98342.19;5010519;28;20152;-63
2022/04/10 15:24:35;;;;;;;3.42;1.23;;;;;;;16.14;20.06;98344.13;5026600;28;20044;-60
2022/04/10 15:27:00;;;;;;;3.58;1.20;;;;;;;16.18;19.91;98328.84;5019328;28;20029;-61
2022/04/10 15:29:25;;;;;;;3.80;1.30;;;;;;;15.93;19.77;98289.84;5024762;28;20057;-60
2022/04/10 15:31:51;;;;;;;3.78;1.40;;;;;;;16.06;19.49;98299.66;5011184;28;20119;-61
2022/04/10 15:34:16;;;;;;;4.65;1.50;;;;;;;16.16;19.54;98326.41;5024936;28;20384;-62
2022/04/10 15:36:42;;;;;;;4.72;1.40;;;;;;;16.27;19.87;98325.88;5019004;28;20068;-60
2022/04/10 15:39:08;;;;;;;4.00;1.50;;;;;;;16.18;18.78;98341.94;5027323;28;20033;-60
2022/04/10 15:41:46;;;;;;;3.42;1.20;;;;;;;16.07;19.82;98332.75;5034560;28;20682;-60
2022/04/10 15:44:12;;;;;;;4.28;1.52;;;;;;;16.05;20.51;98343.44;5007251;28;20030;-61
2022/04/10 15:46:38;;;;;;;4.65;1.52;;;;;;;16.14;20.32;98350.19;5017845;28;20619;-61
2022/04/10 15:49:04;;;;;;;4.72;1.42;;;;;;;15.85;20.66;98306.53;5006040;28;20044;-59
2022/04/10 15:51:29;;;;;;;4.25;1.50;;;;;;;16.12;19.38;98340.88;5022635;28;20246;-61
2022/04/10 15:53:55;;;;;;;4.35;1.65;;;;;;;16.12;20.20;98336.44;5004832;28;20545;-59
2022/04/10 15:56:20;;;;;;;3.65;1.40;;;;;;;16.38;20.08;98360.50;4988708;28;20042;-61
2022/04/10 15:58:47;;;;;;;5.85;1.60;;;;;;;16.12;19.74;98357.44;5001060;28;20030;-60
2022/04/10 16:01:12;;;;;;;3.50;1.38;;;;;;;16.04;19.64;98351.47;5002497;28;20109;-60
2022/04/10 16:03:38;;;;;;;3.78;1.40;;;;;;;15.87;19.96;98319.44;5004622;28;20040;-61
2022/04/10 16:06:04;;;;;;;4.60;1.50;;;;;;;16.31;20.34;98357.81;5012184;28;20035;-62
2022/04/10 16:08:30;;;;;;;4.07;1.38;;;;;;;16.22;19.69;98351.06;5018029;28;20061;-62
2022/04/10 16:10:55;;;;;;;3.92;1.30;;;;;;;16.10;20.29;98351.56;5025163;28;20101;-61
2022/04/10 16:13:21;;;;;;;4.53;1.67;;;;;;;15.98;20.26;98367.97;5037023;28;20037;-61
2022/04/10 16:15:47;;;;;;;4.68;1.27;;;;;;;15.89;20.62;98362.03;5008906;28;20025;-62
2022/04/10 16:18:13;;;;;;;3.80;1.50;;;;;;;15.78;20.61;98352.03;5019517;28;20030;-61
2022/04/10 16:20:38;;;;;;;5.70;1.98;;;;;;;15.76;21.10;98355.63;5047752;28;20022;-63
2022/04/10 16:23:05;;;;;;;4.75;1.70;;;;;;;15.61;20.77;98339.09;5006404;28;20347;-63
2022/04/10 16:25:31;;;;;;;4.20;1.67;;;;;;;15.56;20.65;98352.72;5010444;28;20504;-63
2022/04/10 16:30:40;;;;;;;6.05;1.58;;;;;;;15.38;21.10;98353.09;5005696;28;20052;-62
2022/04/10 16:33:07;;;;;;;4.60;1.55;;;;;;;15.31;21.59;98348.78;5000870;28;20511;-62
2022/04/10 16:35:34;;;;;;;5.35;1.52;;;;;;;15.35;21.44;98363.13;4999232;28;20030;-65
2022/04/10 16:38:00;;;;;;;3.65;1.20;;;;;;;15.15;21.29;98347.16;5003349;28;20028;-63
2022/04/10 16:40:27;;;;;;;4.75;1.80;;;;;;;15.14;20.48;98361.25;4992366;28;20026;-63
2022/04/10 16:42:53;;;;;;;4.30;1.65;;;;;;;14.88;20.76;98325.84;5002078;28;20484;-61
2022/04/10 16:45:19;;;;;;;3.70;1.30;;;;;;;14.68;21.42;98324.75;5019530;28;20040;-63
2022/04/10 16:47:45;;;;;;;4.45;1.50;;;;;;;14.89;22.00;98377.19;5006227;28;20563;-62
2022/04/10 16:50:12;;;;;;;3.22;1.20;;;;;;;14.93;21.91;98360.16;4989719;28;20022;-63
2022/04/10 16:52:39;;;;;;;4.55;1.50;;;;;;;14.90;21.58;98370.97;5005147;28;20477;-63
2022/04/10 16:55:07;;;;;;;4.05;1.45;;;;;;;14.78;22.28;98365.38;5001691;28;20032;-62
2022/04/10 16:57:34;;;;;;;3.30;1.33;;;;;;;14.65;22.20;98338.16;5009105;28;20536;-62
2022/04/10 17:00:00;;;;;;;4.35;1.50;;;;;;;14.75;22.60;98370.94;5008121;28;20038;-62
